Hlavní strana
METAR-TAF:

METAR-TAF

Letiště :

Mezinárodní letiště Gibraltar

Gibraltar, Gibraltar

zeměpisná šířka: 36-09N, zeměpisná délka: 005-21W, výška: 5 m

Aktuální stav počasí

Zpráva byla vytvořena před 22 minutami, v 09:50 UTC
Východní vítr 10 kt
Teplota 26°C
Vlhkost vzduchu 79%
Tlak 1017 hPa
Viditelnost 10 km a více
Skoro jasno ve výšce 2200 ft

METAR: LXGB 070950Z 08010KT 9999 FEW022 26/22 Q1017 NOSIG RMK BLU BLU

Čas: 12:12 (10:12 UTC)

Předpověď počasí

Zpráva byla vytvořena před 2 hodinami a 31 minutami, v 07:41 UTC
Předpověď platná od 07 v 09 UTC do 07 v 18 UTC
Východní vítr 10 kt
Viditelnost 10 km a více
Skoro jasno ve výšce 1500 ft
Pravděpodobnost 30% :
Dočasný
od 07 v 09 UTC do 07 v 10 UTC
Polojasno ve výšce 1800 ft

TAF: LXGB 070741Z 0709/0718 09010KT 9999 FEW015 PROB30 TEMPO 0709/0710 SCT018

Stav a předpovědi počasí z více než 4 000 letišť (zprávy METAR a TAF).

Červené a žluté tečky na mapě představují dostupné meteorologické stanice.

Když kurzor umístíte na tečku, zobrazí se název stanice.

Pak kliknutím zobrazíte stav a předpověď počasí.

Chcete-li změnit mapu, kliknutím na zelené tlačítko se znaménkem +mapu přiblížíte, kliknutím na zelené tlačítko se znaménkem – mapu oddálíte a kliknutím na zelené šipky přejdete na sousední mapy.


METAR-TAF: